createdAt,value
2023-04-15T00:00:37.381Z,3.30
2023-04-15T00:03:06.425Z,3.30
2023-04-15T00:05:36.539Z,3.40
2023-04-15T00:08:05.503Z,3.40
2023-04-15T00:10:33.818Z,3.30
2023-04-15T00:13:02.941Z,3.30
2023-04-15T00:15:31.736Z,3.30
2023-04-15T00:18:00.047Z,3.40
2023-04-15T00:20:28.243Z,3.40
2023-04-15T00:22:58.109Z,3.40
2023-04-15T00:25:26.416Z,3.40
2023-04-15T00:27:54.544Z,3.40
2023-04-15T00:30:24.104Z,3.40
2023-04-15T00:32:52.873Z,3.30
2023-04-15T00:35:21.805Z,3.40
2023-04-15T00:37:50.044Z,3.40
2023-04-15T00:40:20.990Z,3.40
2023-04-15T00:42:49.228Z,3.40
2023-04-15T00:45:17.730Z,3.40
2023-04-15T00:47:46.392Z,3.40
2023-04-15T00:50:14.837Z,3.40
2023-04-15T00:52:43.017Z,3.40
2023-04-15T00:55:11.746Z,3.40
2023-04-15T00:57:42.056Z,3.30
2023-04-15T01:00:12.136Z,3.30
2023-04-15T01:02:40.756Z,3.30
2023-04-15T01:05:09.539Z,3.40
2023-04-15T01:07:37.801Z,3.40
2023-04-15T01:10:06.874Z,3.50
2023-04-15T01:12:36.002Z,3.60
2023-04-15T01:15:06.552Z,3.50
2023-04-15T01:17:35.065Z,3.50
2023-04-15T01:20:03.471Z,3.50
2023-04-15T01:22:33.395Z,3.50
2023-04-15T01:25:10.169Z,3.50
2023-04-15T01:27:41.116Z,3.50
2023-04-15T01:30:10.686Z,3.60
2023-04-15T01:32:39.291Z,3.60
2023-04-15T01:35:08.949Z,3.60
2023-04-15T01:37:37.818Z,3.60
2023-04-15T01:40:07.250Z,3.60
2023-04-15T01:42:36.647Z,3.60
2023-04-15T01:45:07.239Z,3.60
2023-04-15T01:47:35.837Z,3.70
2023-04-15T01:50:04.272Z,3.70
2023-04-15T01:52:32.659Z,3.70
2023-04-15T01:55:01.224Z,3.70
2023-04-15T01:57:29.350Z,3.80
2023-04-15T01:59:57.535Z,3.80
2023-04-15T02:02:27.515Z,3.80
2023-04-15T02:04:55.752Z,3.80
2023-04-15T02:07:24.298Z,3.80
2023-04-15T02:09:53.479Z,3.90
2023-04-15T02:12:22.128Z,3.90
2023-04-15T02:14:50.359Z,3.90
2023-04-15T02:17:18.709Z,3.90
2023-04-15T02:19:48.384Z,3.90
2023-04-15T02:22:18.995Z,3.90
2023-04-15T02:24:48.198Z,4.00
2023-04-15T02:27:19.873Z,4.00
2023-04-15T02:29:48.144Z,4.00
2023-04-15T02:32:16.478Z,4.00
2023-04-15T02:34:44.748Z,4.00
2023-04-15T02:37:16.148Z,3.90
2023-04-15T02:39:44.437Z,3.90
2023-04-15T02:42:13.277Z,4.00
2023-04-15T02:44:41.756Z,4.00
2023-04-15T02:47:11.828Z,4.00
2023-04-15T02:49:40.457Z,4.00
2023-04-15T02:52:08.683Z,4.00
2023-04-15T02:54:38.367Z,4.00
2023-04-15T02:57:06.922Z,4.00
2023-04-15T02:59:35.147Z,4.00
2023-04-15T03:02:03.852Z,4.00
2023-04-15T03:04:31.973Z,4.00
2023-04-15T03:07:01.054Z,4.00
2023-04-15T03:09:29.337Z,4.00
2023-04-15T03:11:58.971Z,4.00
2023-04-15T03:14:27.189Z,4.00
2023-04-15T03:16:55.493Z,4.00
2023-04-15T03:19:23.674Z,4.00
2023-04-15T03:21:52.118Z,4.00
2023-04-15T03:24:20.370Z,4.00
2023-04-15T03:26:48.566Z,4.00
2023-04-15T03:29:18.269Z,4.00
2023-04-15T03:31:46.539Z,4.00
2023-04-15T03:34:14.841Z,4.00
2023-04-15T03:36:42.983Z,4.00
2023-04-15T03:39:11.230Z,4.00
2023-04-15T03:41:39.485Z,4.00
2023-04-15T03:44:07.681Z,4.00
2023-04-15T03:46:37.482Z,4.00
2023-04-15T03:49:06.376Z,4.00
2023-04-15T03:51:34.836Z,4.00
2023-04-15T03:54:03.476Z,4.00
2023-04-15T03:56:31.829Z,4.00
2023-04-15T03:59:00.420Z,4.00
2023-04-15T04:01:28.937Z,4.00
2023-04-15T04:03:58.834Z,4.00
2023-04-15T04:06:27.590Z,4.00
2023-04-15T04:08:56.436Z,4.00
2023-04-15T04:11:24.665Z,4.00
2023-04-15T04:13:52.799Z,4.10
2023-04-15T04:16:21.280Z,4.10
2023-04-15T04:18:49.721Z,4.10
2023-04-15T04:21:19.442Z,4.10
2023-04-15T04:23:47.804Z,4.10
2023-04-15T04:26:16.313Z,4.20
2023-04-15T04:28:44.461Z,4.20
2023-04-15T04:31:12.891Z,4.20
2023-04-15T04:33:41.506Z,4.20
2023-04-15T04:36:09.667Z,4.30
2023-04-15T04:38:39.305Z,4.30
2023-04-15T04:41:07.502Z,4.40
2023-04-15T04:43:35.686Z,4.50
2023-04-15T04:46:03.969Z,4.50
2023-04-15T04:48:32.326Z,4.60
2023-04-15T04:51:00.808Z,4.50
2023-04-15T04:53:29.266Z,4.50
2023-04-15T04:55:58.954Z,4.50
2023-04-15T04:58:27.389Z,4.50
2023-04-15T05:00:55.878Z,4.50
2023-04-15T05:03:24.367Z,4.40
2023-04-15T05:05:52.984Z,4.50
2023-04-15T05:08:21.650Z,4.50
2023-04-15T05:10:50.102Z,4.50
2023-04-15T05:13:21.615Z,4.40
2023-04-15T05:15:50.117Z,4.50
2023-04-15T05:18:18.272Z,4.40
2023-04-15T05:20:46.566Z,4.50
2023-04-15T05:23:15.059Z,4.50
2023-04-15T05:25:43.507Z,4.50
2023-04-15T05:28:11.669Z,4.50
2023-04-15T05:30:42.008Z,4.60
2023-04-15T05:33:10.857Z,4.60
2023-04-15T05:35:39.049Z,4.70
2023-04-15T05:38:08.035Z,4.70
2023-04-15T05:40:36.300Z,4.80
2023-04-15T05:43:04.490Z,4.80
2023-04-15T05:45:32.866Z,4.80
2023-04-15T05:48:02.523Z,4.80
2023-04-15T05:50:30.742Z,4.90
2023-04-15T05:52:59.108Z,4.90
2023-04-15T05:55:27.511Z,4.90
2023-04-15T05:57:55.759Z,5.00
2023-04-15T06:00:24.331Z,5.00
2023-04-15T06:02:52.872Z,5.10
2023-04-15T06:05:22.483Z,5.10
2023-04-15T06:07:51.575Z,5.20
2023-04-15T06:10:19.865Z,5.20
2023-04-15T06:12:48.158Z,5.20
2023-04-15T06:15:17.334Z,5.20
2023-04-15T06:17:45.497Z,5.30
2023-04-15T06:20:14.296Z,5.30
2023-04-15T06:22:44.212Z,5.40
2023-04-15T06:25:12.393Z,5.40
2023-04-15T06:27:40.657Z,5.50
2023-04-15T06:30:10.199Z,5.50
2023-04-15T06:32:38.468Z,5.50
2023-04-15T06:35:07.198Z,5.60
2023-04-15T06:37:35.659Z,5.70
2023-04-15T06:40:05.945Z,5.70
2023-04-15T06:42:34.146Z,5.80
2023-04-15T06:45:02.910Z,5.80
2023-04-15T06:47:31.281Z,5.90
2023-04-15T06:49:59.581Z,6.00
2023-04-15T06:52:27.941Z,6.00
2023-04-15T06:54:56.184Z,6.10
2023-04-15T06:57:25.920Z,6.10
2023-04-15T06:59:54.800Z,6.30
2023-04-15T07:02:23.457Z,6.40
2023-04-15T07:04:51.651Z,6.50
2023-04-15T07:07:20.071Z,6.70
2023-04-15T07:09:48.514Z,6.80
2023-04-15T07:12:16.776Z,6.80
2023-04-15T07:14:46.456Z,6.90
2023-04-15T07:17:14.684Z,7.00
2023-04-15T07:19:43.005Z,7.10
2023-04-15T07:22:11.649Z,7.30
2023-04-15T07:24:39.775Z,7.50
2023-04-15T07:27:08.530Z,7.60
2023-04-15T07:29:37.151Z,7.60
2023-04-15T07:32:07.400Z,7.70
2023-04-15T07:34:35.564Z,7.80
2023-04-15T07:37:04.176Z,7.90
2023-04-15T07:39:32.372Z,8.00
2023-04-15T07:42:00.650Z,8.20
2023-04-15T07:44:29.182Z,8.40
2023-04-15T07:46:57.694Z,8.80
2023-04-15T07:49:27.399Z,9.10
2023-04-15T07:51:57.703Z,9.20
2023-04-15T07:54:26.382Z,9.50
2023-04-15T07:56:54.903Z,10.00
2023-04-15T07:59:23.212Z,10.30
2023-04-15T08:01:51.566Z,10.50
2023-04-15T08:04:19.835Z,10.60
2023-04-15T08:06:50.495Z,10.80
2023-04-15T08:09:18.871Z,10.90
2023-04-15T08:11:49.812Z,11.10
2023-04-15T08:14:18.306Z,11.30
2023-04-15T08:16:46.443Z,11.30
2023-04-15T08:19:14.609Z,11.20
2023-04-15T08:21:43.075Z,11.20
2023-04-15T08:24:13.047Z,11.50
2023-04-15T08:26:42.044Z,11.60
2023-04-15T08:29:10.509Z,11.70
2023-04-15T08:31:38.708Z,11.60
2023-04-15T08:34:06.890Z,11.90
2023-04-15T08:36:35.241Z,12.10
2023-04-15T08:39:05.074Z,12.10
2023-04-15T08:41:42.137Z,11.90
2023-04-15T08:44:11.533Z,12.30
2023-04-15T08:46:40.218Z,12.40
2023-04-15T08:49:12.180Z,12.20
2023-04-15T08:51:41.498Z,12.70
2023-04-15T08:54:10.089Z,12.30
2023-04-15T08:56:40.884Z,12.60
2023-04-15T08:59:09.838Z,12.60
2023-04-15T09:01:39.479Z,12.90
2023-04-15T09:04:08.348Z,12.40
2023-04-15T09:06:36.873Z,12.50
2023-04-15T09:09:05.287Z,12.70
2023-04-15T09:11:33.780Z,12.80
2023-04-15T09:14:03.832Z,12.90
2023-04-15T09:16:32.609Z,13.40
2023-04-15T09:19:00.990Z,13.60
2023-04-15T09:21:29.568Z,14.10
2023-04-15T09:23:59.550Z,13.30
2023-04-15T09:26:35.306Z,13.00
2023-04-15T09:29:09.282Z,12.60
2023-04-15T09:31:38.034Z,12.80
2023-04-15T09:34:07.005Z,13.50
2023-04-15T09:36:53.972Z,13.60
2023-04-15T09:39:22.569Z,13.30
2023-04-15T09:42:06.902Z,13.30
2023-04-15T09:44:36.845Z,13.80
2023-04-15T09:47:05.560Z,14.40
2023-04-15T09:49:34.354Z,14.30
2023-04-15T09:52:05.986Z,14.10
2023-04-15T09:54:36.462Z,13.80
2023-04-15T09:57:10.057Z,13.70
2023-04-15T09:59:40.057Z,14.00
2023-04-15T10:02:08.675Z,13.90
2023-04-15T10:04:39.783Z,13.60
2023-04-15T10:07:09.831Z,13.80
2023-04-15T10:09:39.671Z,13.90
2023-04-15T10:12:08.243Z,14.40
2023-04-15T10:14:39.101Z,14.70
2023-04-15T10:17:12.256Z,15.30
2023-04-15T10:19:41.543Z,15.70
2023-04-15T10:22:10.243Z,15.60
2023-04-15T10:24:40.155Z,16.30
2023-04-15T10:27:09.274Z,17.40
2023-04-15T10:29:37.719Z,17.20
2023-04-15T10:32:06.613Z,16.50
2023-04-15T10:34:36.912Z,16.80
2023-04-15T10:37:06.139Z,16.70
2023-04-15T10:39:42.898Z,16.50
2023-04-15T10:42:12.550Z,16.80
2023-04-15T10:44:43.676Z,17.70
2023-04-15T10:47:13.675Z,18.40
2023-04-15T10:49:48.201Z,17.60
2023-04-15T10:52:18.108Z,16.40
2023-04-15T10:54:46.302Z,16.50
2023-04-15T10:57:22.986Z,16.20
2023-04-15T11:00:12.411Z,17.30
2023-04-15T11:02:42.980Z,17.00
2023-04-15T11:05:13.932Z,17.50
2023-04-15T11:07:51.122Z,17.30
2023-04-15T11:10:56.337Z,17.10
2023-04-15T11:13:29.479Z,17.00
2023-04-15T11:16:01.422Z,16.80
2023-04-15T11:18:33.956Z,16.20
2023-04-15T11:21:06.388Z,16.40
2023-04-15T11:23:37.358Z,16.70
2023-04-15T11:26:09.903Z,17.40
2023-04-15T11:28:40.275Z,16.30
2023-04-15T11:31:11.842Z,16.20
2023-04-15T11:33:48.135Z,16.80
2023-04-15T11:36:17.953Z,17.30
2023-04-15T11:38:48.202Z,17.40
2023-04-15T11:41:16.735Z,17.50
2023-04-15T11:43:44.984Z,18.20
2023-04-15T11:46:13.276Z,18.10
2023-04-15T11:48:44.957Z,17.70
2023-04-15T11:51:14.824Z,18.00
2023-04-15T11:53:46.676Z,17.90
2023-04-15T11:56:20.281Z,17.20
2023-04-15T11:58:50.902Z,16.70
2023-04-15T12:01:19.397Z,16.30
2023-04-15T12:03:49.458Z,15.70
2023-04-15T12:06:19.767Z,16.20
2023-04-15T12:09:11.122Z,17.40
2023-04-15T12:11:45.296Z,16.30
2023-04-15T12:14:18.111Z,16.60
2023-04-15T12:16:50.099Z,16.60
2023-04-15T12:19:24.462Z,17.00
2023-04-15T12:21:53.518Z,18.00
2023-04-15T12:24:24.210Z,18.70
2023-04-15T12:26:54.223Z,18.80
2023-04-15T12:29:27.999Z,18.50
2023-04-15T12:31:58.604Z,18.50
2023-04-15T12:34:30.899Z,17.90
2023-04-15T12:37:00.144Z,17.40
2023-04-15T12:39:32.066Z,17.00
2023-04-15T12:42:01.805Z,18.40
2023-04-15T12:44:30.108Z,17.70
2023-04-15T12:46:59.885Z,18.00
2023-04-15T12:49:29.220Z,18.60
2023-04-15T12:51:59.567Z,18.90
2023-04-15T12:54:29.844Z,19.50
2023-04-15T12:56:58.671Z,19.80
2023-04-15T12:59:26.929Z,20.00
2023-04-15T13:01:55.658Z,19.80
2023-04-15T13:04:24.295Z,19.20
2023-04-15T13:06:52.589Z,18.90
2023-04-15T13:09:20.825Z,18.00
2023-04-15T13:11:53.042Z,17.70
2023-04-15T13:14:21.539Z,17.70
2023-04-15T13:16:49.810Z,16.60
2023-04-15T13:19:18.021Z,16.40
2023-04-15T13:21:46.254Z,17.40
2023-04-15T13:24:14.383Z,16.70
2023-04-15T13:26:42.871Z,16.00
2023-04-15T13:29:14.181Z,15.00
2023-04-15T13:31:42.440Z,13.50
2023-04-15T13:34:10.991Z,12.70
2023-04-15T13:36:39.171Z,11.70
2023-04-15T13:39:07.396Z,11.00
2023-04-15T13:41:35.782Z,10.60
2023-04-15T13:44:05.419Z,10.30
2023-04-15T13:46:35.202Z,10.10
2023-04-15T13:49:03.701Z,10.00
2023-04-15T13:51:32.980Z,10.00
2023-04-15T13:54:01.153Z,9.90
2023-04-15T13:56:32.524Z,9.80
2023-04-15T13:59:02.426Z,9.80
2023-04-15T14:01:30.899Z,9.80
2023-04-15T14:04:00.629Z,9.90
2023-04-15T14:06:29.495Z,9.80
2023-04-15T14:08:57.735Z,9.80
2023-04-15T14:11:26.443Z,9.80
2023-04-15T14:13:54.596Z,9.70
2023-04-15T14:16:22.900Z,9.90
2023-04-15T14:18:51.138Z,9.80
2023-04-15T14:21:20.802Z,9.80
2023-04-15T14:23:49.120Z,9.90
2023-04-15T14:26:17.402Z,9.90
2023-04-15T14:28:45.966Z,10.00
2023-04-15T14:31:14.467Z,10.10
2023-04-15T14:33:42.849Z,10.30
2023-04-15T14:36:11.300Z,10.20
2023-04-15T14:38:41.179Z,10.00
2023-04-15T14:41:10.262Z,10.20
2023-04-15T14:43:38.730Z,10.00
2023-04-15T14:46:08.609Z,10.10
2023-04-15T14:48:37.132Z,10.00
2023-04-15T14:51:05.692Z,10.10
2023-04-15T14:53:33.924Z,10.00
2023-04-15T14:56:03.707Z,10.10
2023-04-15T14:58:32.875Z,10.20
2023-04-15T15:01:02.005Z,10.20
2023-04-15T15:03:30.782Z,10.10
2023-04-15T15:05:59.049Z,10.20
2023-04-15T15:08:27.283Z,10.00
2023-04-15T15:10:55.596Z,9.90
2023-04-15T15:13:25.454Z,9.90
2023-04-15T15:15:54.097Z,10.00
2023-04-15T15:18:22.706Z,10.10
2023-04-15T15:20:51.109Z,10.00
2023-04-15T15:23:19.239Z,9.90
2023-04-15T15:25:48.251Z,9.90
2023-04-15T15:28:16.506Z,9.70
2023-04-15T15:30:45.985Z,9.40
2023-04-15T15:33:14.292Z,9.20
2023-04-15T15:35:42.560Z,9.10
2023-04-15T15:38:13.476Z,9.10
2023-04-15T15:40:41.805Z,9.10
2023-04-15T15:43:10.053Z,9.10
2023-04-15T15:45:38.303Z,9.10
2023-04-15T15:48:08.473Z,9.20
2023-04-15T15:50:36.641Z,9.20
2023-04-15T15:53:04.792Z,9.10
2023-04-15T15:55:33.115Z,9.20
2023-04-15T15:58:01.320Z,9.20
2023-04-15T16:00:29.592Z,9.10
2023-04-15T16:05:31.187Z,9.00
2023-04-15T16:07:59.497Z,8.90
2023-04-15T16:10:27.754Z,8.90
2023-04-15T16:12:56.183Z,8.90
2023-04-15T16:15:25.062Z,8.90
2023-04-15T16:17:53.486Z,8.90
2023-04-15T16:20:21.836Z,8.90
2023-04-15T16:22:51.773Z,8.90
2023-04-15T16:25:20.127Z,8.90
2023-04-15T16:27:59.494Z,8.80
2023-04-15T16:30:31.816Z,8.70
2023-04-15T16:33:00.390Z,8.60
2023-04-15T16:35:28.709Z,8.60
2023-04-15T16:37:58.425Z,8.60
2023-04-15T16:40:26.936Z,8.70
2023-04-15T16:42:55.809Z,8.60
2023-04-15T16:45:23.954Z,8.50
2023-04-15T16:47:52.282Z,8.40
2023-04-15T16:50:20.644Z,8.30
2023-04-15T16:52:49.026Z,8.20
2023-04-15T16:55:18.993Z,8.20
2023-04-15T16:58:02.418Z,8.10
2023-04-15T17:00:32.356Z,8.10
2023-04-15T17:03:01.426Z,8.00
2023-04-15T17:05:31.171Z,7.90
2023-04-15T17:07:59.783Z,7.80
2023-04-15T17:10:29.662Z,7.80
2023-04-15T17:12:58.593Z,7.70
2023-04-15T17:15:27.874Z,7.60
2023-04-15T17:17:56.248Z,7.60
2023-04-15T17:20:24.492Z,7.50
2023-04-15T17:22:52.850Z,7.30
2023-04-15T17:25:21.091Z,7.20
2023-04-15T17:27:50.861Z,7.10
2023-04-15T17:30:19.422Z,7.00
2023-04-15T17:32:47.701Z,6.80
2023-04-15T17:35:16.310Z,6.70
2023-04-15T17:37:44.802Z,6.60
2023-04-15T17:40:14.886Z,6.50
2023-04-15T17:42:43.078Z,6.40
2023-04-15T17:45:13.298Z,6.40
2023-04-15T17:47:41.692Z,6.30
2023-04-15T17:50:10.780Z,6.20
2023-04-15T17:52:39.316Z,6.20
2023-04-15T17:55:08.757Z,6.10
2023-04-15T17:57:36.995Z,6.10
2023-04-15T18:00:06.228Z,5.90
2023-04-15T18:02:37.138Z,5.90
2023-04-15T18:05:06.440Z,5.90
2023-04-15T18:07:34.814Z,5.80
2023-04-15T18:10:03.018Z,5.70
2023-04-15T18:12:31.382Z,5.70
2023-04-15T18:14:59.836Z,5.60
2023-04-15T18:17:28.944Z,5.60
2023-04-15T18:19:58.619Z,5.50
2023-04-15T18:22:26.800Z,5.40
2023-04-15T18:24:54.962Z,5.40
2023-04-15T18:27:23.237Z,5.30
2023-04-15T18:29:52.361Z,5.30
2023-04-15T18:32:20.544Z,5.30
2023-04-15T18:34:49.484Z,5.20
2023-04-15T18:37:19.112Z,5.20
2023-04-15T18:39:47.193Z,5.10
2023-04-15T18:42:15.589Z,5.10
2023-04-15T18:44:43.702Z,5.10
2023-04-15T18:47:11.968Z,5.00
2023-04-15T18:49:41.503Z,5.00
2023-04-15T18:52:12.228Z,4.90
2023-04-15T18:54:41.886Z,4.90
2023-04-15T18:57:10.103Z,4.80
2023-04-15T18:59:38.660Z,4.70
2023-04-15T19:02:09.003Z,4.70
2023-04-15T19:04:37.293Z,4.60
2023-04-15T19:07:05.699Z,4.70
2023-04-15T19:09:34.316Z,4.70
2023-04-15T19:12:04.071Z,4.70
2023-04-15T19:14:32.272Z,4.70
2023-04-15T19:17:00.734Z,4.60
2023-04-15T19:19:29.483Z,4.50
2023-04-15T19:21:58.021Z,4.50
2023-04-15T19:24:26.324Z,4.60
2023-04-15T19:26:54.542Z,4.60
2023-04-15T19:29:24.505Z,4.60
2023-04-15T19:31:52.945Z,4.50
2023-04-15T19:34:21.433Z,4.50
2023-04-15T19:36:49.893Z,4.50
2023-04-15T19:39:18.577Z,4.50
2023-04-15T19:41:47.319Z,4.50
2023-04-15T19:44:16.947Z,4.40
2023-04-15T19:46:49.916Z,4.40
2023-04-15T19:49:18.932Z,4.40
2023-04-15T19:51:48.844Z,4.30
2023-04-15T19:54:17.190Z,4.30
2023-04-15T19:56:45.536Z,4.30
2023-04-15T19:59:13.837Z,4.30
2023-04-15T20:01:42.018Z,4.20
2023-04-15T20:04:11.982Z,4.20
2023-04-15T20:06:40.334Z,4.10
2023-04-15T20:09:10.931Z,4.10
2023-04-15T20:12:44.893Z,4.10
2023-04-15T20:14:27.740Z,4.10
2023-04-15T20:16:56.322Z,4.00
2023-04-15T20:19:25.968Z,4.00
2023-04-15T20:21:54.564Z,3.90
2023-04-15T20:24:24.398Z,3.90
2023-04-15T20:26:52.702Z,3.80
2023-04-15T20:29:21.130Z,3.80
2023-04-15T20:31:49.488Z,3.80
2023-04-15T20:34:17.684Z,3.70
2023-04-15T20:36:47.399Z,3.60
2023-04-15T20:39:15.992Z,3.70
2023-04-15T20:41:44.172Z,3.70
2023-04-15T20:44:12.393Z,3.60
2023-04-15T20:46:40.577Z,3.50
2023-04-15T20:49:08.745Z,3.60
2023-04-15T20:51:38.056Z,3.60
2023-04-15T20:54:08.307Z,3.60
2023-04-15T20:56:36.451Z,3.50
2023-04-15T20:59:05.122Z,3.50
2023-04-15T21:01:33.755Z,3.50
2023-04-15T21:04:02.106Z,3.40
2023-04-15T21:06:30.840Z,3.50
2023-04-15T21:08:59.256Z,3.50
2023-04-15T21:14:08.563Z,3.50
2023-04-15T21:16:36.865Z,3.50
2023-04-15T21:19:05.242Z,3.50
2023-04-15T21:21:34.094Z,3.50
2023-04-15T21:24:02.518Z,3.50
2023-04-15T21:26:32.163Z,3.50
2023-04-15T21:29:00.932Z,3.50
2023-04-15T21:31:29.256Z,3.50
2023-04-15T21:33:57.540Z,3.40
2023-04-15T21:36:25.958Z,3.40
2023-04-15T21:38:54.961Z,3.30
2023-04-15T21:41:23.111Z,3.10
2023-04-15T21:43:53.052Z,3.00
2023-04-15T21:46:25.257Z,2.90
2023-04-15T21:48:54.617Z,2.80
2023-04-15T21:51:23.057Z,2.70
2023-04-15T21:53:52.673Z,2.60
2023-04-15T21:56:23.249Z,2.60
2023-04-15T21:58:56.901Z,2.60
2023-04-15T22:01:25.661Z,2.50
2023-04-15T22:03:54.234Z,2.50
2023-04-15T22:06:22.677Z,2.40
2023-04-15T22:08:57.123Z,2.40
2023-04-15T22:11:28.361Z,2.30
2023-04-15T22:13:59.104Z,2.20
2023-04-15T22:16:28.008Z,2.10
2023-04-15T22:18:56.636Z,2.00
2023-04-15T22:21:25.100Z,1.90
2023-04-15T22:24:31.658Z,1.80
2023-04-15T22:26:42.471Z,1.80
2023-04-15T22:29:12.287Z,1.80
2023-04-15T22:31:40.625Z,1.90
2023-04-15T22:34:08.890Z,2.00
2023-04-15T22:36:37.237Z,1.90
2023-04-15T22:39:05.924Z,1.80
2023-04-15T22:41:34.527Z,1.80
2023-04-15T22:44:02.756Z,1.70
2023-04-15T22:46:32.497Z,1.60
2023-04-15T22:49:01.062Z,1.50
2023-04-15T22:51:29.638Z,1.40
2023-04-15T22:53:57.936Z,1.40
2023-04-15T22:56:26.329Z,1.30
2023-04-15T22:58:54.544Z,1.20
2023-04-15T23:01:22.809Z,1.10
2023-04-15T23:03:57.603Z,1.10
2023-04-15T23:06:33.792Z,1.10
2023-04-15T23:09:02.030Z,1.10
2023-04-15T23:11:30.223Z,1.00
2023-04-15T23:13:58.510Z,1.00
2023-04-15T23:16:27.108Z,0.80
2023-04-15T23:18:56.830Z,0.80
2023-04-15T23:21:26.123Z,0.80
2023-04-15T23:23:54.731Z,0.70
2023-04-15T23:26:22.876Z,0.70
2023-04-15T23:28:51.148Z,0.60
2023-04-15T23:31:19.706Z,0.60
2023-04-15T23:33:47.921Z,0.60
2023-04-15T23:36:17.535Z,0.70
2023-04-15T23:38:46.255Z,0.80
2023-04-15T23:41:14.754Z,0.80
2023-04-15T23:43:42.831Z,0.80
2023-04-15T23:46:12.017Z,0.80
2023-04-15T23:48:40.791Z,1.00
2023-04-15T23:51:09.049Z,1.20
2023-04-15T23:53:38.777Z,1.20
2023-04-15T23:56:07.699Z,1.20
2023-04-15T23:58:35.929Z,1.30
